Brussel, België

8:51 PM CET op 17 december 2014 (GMT +0100)
Brussels National | Change Station
CLOSE
Current Station
Luchthaven
Location: Brussels,
Geometrische hoogte: 190 ft
Nabije weerstations

Hoogte 190 ft 50.90 °N, 4.53 °E | Updated 31 minutes ago

Mostly Cloudy
Merendeels bewolkt
52 °F
Voelt als 52 °F
N
9
Wind Variabel Wind van WZW

Vandaag
Hoog -- | Laag -- °F
--% Kans op neerslag
Gisteren
Hoog -- | Laag -- °F
Precip. -- inches
8:39 AM 4:36 PM
Afnemende halvemaan, 20% visible
Druk 29.80 inches
Zicht 6.2 mijlen
Wolken Merendeels bewolkt 1900 ft
Dauwpunt 48 °F
Vochtigheid 88%
Neerslag 0.00 inches
Dikte sneeuw Niet beschikbaar.
UV 0 van de 12
Pollen Niet beschikbaar.
Luchtkwaliteit Niet beschikbaar.
Flu Activity Niet beschikbaar.
METAR EBBR 171920Z 24008KT 9999 BKN019 11/09 Q1009 TEMPO BKN010

More Conditions Fewer Conditions

Druk 29.80 inches
Zicht 6.2 mijlen
Wolken Merendeels bewolkt 1900 ft
Dauwpunt 48 °F
Vochtigheid 88%
Neerslag 0.00 inches
Dikte sneeuw Niet beschikbaar.
UV 0 van de 12
Pollen Niet beschikbaar.
Luchtkwaliteit Niet beschikbaar.
Flu Activity Niet beschikbaar.
METAR EBBR 171920Z 24008KT 9999 BKN019 11/09 Q1009 TEMPO BKN010

More Conditions Fewer Conditions

10-Day Weather Forecast

Almanac

Astronomie

Dec. 17, 2014 Opkomst Ondergang
Werkelijke tijd
Burgerlijke schemering
Nautische schemering
Astronomische schemering
Maan
Golflengte van het zichtbare licht
Daglengte
Tomorrow will be .
, % of the Moon is Illuminated

Extremen vandaag

Country Highs Country Lows

Community

WunderPhotos

Upload Photos

1,778,797 foto’s ge-upload!

WunderBlogs® & News

Nearby

Luchtkwaliteit

  Luchtkwaliteit LK-index Verontreinigende stof
Not available.

Dikte sneeuw

Station Depth Geometrische hoogte

Aardbevingen

Stad Distance Mag. Time & Date
Minimum magnitude displayed is 2.5.

Watertemperatuur langs de kust

Plaats Temperatuur

Nabije weerstations